KMTW/MTW METAR and TAF weather

Enter ICAO airport designator
Station Type Date Time Source
KMTW METAR 2020/10/20 16:56 UTC NOAA

KMTW 201656Z AUTO 11008KT 10SM CLR 07/00 A3030 RMK AO2 SLP267 T00670000


Station Type Date Time Source
KMTW Decoded METAR 2020/10/20 16:56 UTC NOAA

Manitowoc, Manitowoc County Airport, WI, United States (KMTW) 44-08N 087-41W
Oct 20, 2020 - 12:56 PM EDT / 2020.10.20 1656 UTC
Wind: from the ESE (110 degrees) at 9 MPH (8 KT):0
Visibility: 10 mile(s):0
Sky conditions: clear
Temperature: 44.1 F (6.7 C)
Dew Point: 32.0 F (0.0 C)
Relative Humidity: 62%
Pressure (altimeter): 30.3 in. Hg (1026 hPa)
ob: KMTW 201656Z AUTO 11008KT 10SM CLR 07/00 A3030 RMK AO2 SLP267 T00670000
cycle: 17

Station Type Date Time Source
KMTW TAF 2020/10/20 18:29 UTC NOAA

TAF KMTW 201729Z 2018/2118 12009KT P6SM OVC090
FM202000 12009KT P6SM OVC035
FM210100 12007KT 4SM -RA OVC020
TEMPO 2101/2103 3SM RA BKN012
FM210300 15005KT 3SM RA OVC008
TEMPO 2103/2106 1 1/2SM -RA BR
FM210900 27009KT P6SM OVC015
FM211400 27014G20KT P6SM SCT020 BKN150

Example: see airport list